logo
Search for airport 
image banner adimage banner adimage banner ad
image banner ad

KLEB - Lebanon Muni

Located in Lebanon, United States

ICAO - LEB, IATA - LEB

Data provided by Airmate  

General information

Coordinates: N43°37'34" W72°18'15"
Elevation is 603 feet MSL.
Magnetic variation is -16° East
View others Airports in New Hampshire

Operational data

Special qualification required
Current time UTC:
Current local time:
Weather
METAR: KLEB 270253Z AUTO 06003KT 10SM BKN050 OVC060 19/17 A2997 RMK AO2 RAE19 SLP140 P0007 60016 T01940172 53021
TAF: KLEB 270145Z 2702/2724 00000KT P6SM -SHRA BKN080 FM270700 00000KT 6SM BR OVC015 FM271000 VRB03KT 6SM BR OVC008 FM271600 13008KT 6SM BR OVC015 FM272000 15009KT 5SM -SHRA BR OVC009
View NOTAMs / SUP AIP / TFR affecting this airport [VIEW]
Communications frequencies: [VIEW]

Runways:

RWY identifierQFULength (ft)Width (ft)SurfaceLDA (ft)
0759°5496100ASPH
25239°5496100ASPH
18168°5200100ASPH
36348°5200100ASPH

Airport contact information

Address: Lebanon United States

Other aviation service providers

Flight schools

Sharkey's Helicopters, Inc.

Sharkey's Helicopters, Inc.
roger@sharkeys.com+1(603)298-8728

Satellite view of KLEB